sensor_id;sensor_type;location;lat;lon;timestamp;temperature;humidity
75387;DHT22;63966;47.914;22.266;2023-03-01T00:03:00;3.38;75.19
75387;DHT22;63966;47.914;22.266;2023-03-01T00:06:05;3.39;74.40
75387;DHT22;63966;47.914;22.266;2023-03-01T00:09:09;3.35;74.69
75387;DHT22;63966;47.914;22.266;2023-03-01T00:12:12;3.31;75.55
75387;DHT22;63966;47.914;22.266;2023-03-01T00:15:16;3.31;74.78
75387;DHT22;63966;47.914;22.266;2023-03-01T00:18:19;3.31;74.96
75387;DHT22;63966;47.914;22.266;2023-03-01T00:21:24;3.29;75.47
75387;DHT22;63966;47.914;22.266;2023-03-01T00:24:28;3.31;75.76
75387;DHT22;63966;47.914;22.266;2023-03-01T00:27:31;3.39;75.32
75387;DHT22;63966;47.914;22.266;2023-03-01T00:30:38;3.41;75.27
75387;DHT22;63966;47.914;22.266;2023-03-01T00:33:43;3.31;75.52
75387;DHT22;63966;47.914;22.266;2023-03-01T00:36:46;3.31;75.05
75387;DHT22;63966;47.914;22.266;2023-03-01T00:39:50;3.25;75.78
75387;DHT22;63966;47.914;22.266;2023-03-01T00:42:55;3.27;75.64
75387;DHT22;63966;47.914;22.266;2023-03-01T00:49:33;3.07;75.93
75387;DHT22;63966;47.914;22.266;2023-03-01T00:52:38;3.10;75.62
75387;DHT22;63966;47.914;22.266;2023-03-01T00:55:42;3.11;74.53
75387;DHT22;63966;47.914;22.266;2023-03-01T00:58:46;3.03;75.30
75387;DHT22;63966;47.914;22.266;2023-03-01T01:01:49;3.04;75.05
75387;DHT22;63966;47.914;22.266;2023-03-01T01:04:53;2.99;75.09
75387;DHT22;63966;47.914;22.266;2023-03-01T01:07:56;2.94;75.20
75387;DHT22;63966;47.914;22.266;2023-03-01T01:11:00;2.94;75.62
75387;DHT22;63966;47.914;22.266;2023-03-01T01:14:03;2.99;75.48
75387;DHT22;63966;47.914;22.266;2023-03-01T01:17:07;3.03;75.05
75387;DHT22;63966;47.914;22.266;2023-03-01T01:20:11;2.93;75.98
75387;DHT22;63966;47.914;22.266;2023-03-01T01:23:15;2.96;75.51
75387;DHT22;63966;47.914;22.266;2023-03-01T01:26:30;2.84;76.02
75387;DHT22;63966;47.914;22.266;2023-03-01T01:29:35;2.75;75.75
75387;DHT22;63966;47.914;22.266;2023-03-01T01:32:39;2.63;75.85
75387;DHT22;63966;47.914;22.266;2023-03-01T01:35:45;2.59;75.31
75387;DHT22;63966;47.914;22.266;2023-03-01T01:38:49;2.43;75.24
75387;DHT22;63966;47.914;22.266;2023-03-01T01:41:53;2.39;75.07
75387;DHT22;63966;47.914;22.266;2023-03-01T01:48:34;2.31;75.51
75387;DHT22;63966;47.914;22.266;2023-03-01T01:51:45;2.41;75.50
75387;DHT22;63966;47.914;22.266;2023-03-01T01:54:58;2.34;75.12
75387;DHT22;63966;47.914;22.266;2023-03-01T01:58:07;2.28;74.60
75387;DHT22;63966;47.914;22.266;2023-03-01T02:01:14;2.20;75.09
75387;DHT22;63966;47.914;22.266;2023-03-01T02:04:18;2.20;75.93
75387;DHT22;63966;47.914;22.266;2023-03-01T02:07:23;2.18;75.93
75387;DHT22;63966;47.914;22.266;2023-03-01T02:10:27;2.24;75.82
75387;DHT22;63966;47.914;22.266;2023-03-01T02:13:33;2.20;75.96
75387;DHT22;63966;47.914;22.266;2023-03-01T02:16:37;2.14;75.06
75387;DHT22;63966;47.914;22.266;2023-03-01T02:23:15;2.03;75.66
75387;DHT22;63966;47.914;22.266;2023-03-01T02:26:39;1.98;75.66
75387;DHT22;63966;47.914;22.266;2023-03-01T02:29:44;1.97;75.68
75387;DHT22;63966;47.914;22.266;2023-03-01T02:32:49;1.91;75.46
75387;DHT22;63966;47.914;22.266;2023-03-01T02:35:54;1.97;75.80
75387;DHT22;63966;47.914;22.266;2023-03-01T02:38:59;1.88;76.45
75387;DHT22;63966;47.914;22.266;2023-03-01T02:42:04;1.83;76.79
75387;DHT22;63966;47.914;22.266;2023-03-01T02:45:09;1.87;75.94
75387;DHT22;63966;47.914;22.266;2023-03-01T02:48:13;1.87;75.86
75387;DHT22;63966;47.914;22.266;2023-03-01T02:54:41;1.87;76.51
75387;DHT22;63966;47.914;22.266;2023-03-01T02:57:47;1.86;75.85
75387;DHT22;63966;47.914;22.266;2023-03-01T03:00:54;1.84;76.41
75387;DHT22;63966;47.914;22.266;2023-03-01T03:04:00;1.81;76.73
75387;DHT22;63966;47.914;22.266;2023-03-01T03:07:04;1.84;75.86
75387;DHT22;63966;47.914;22.266;2023-03-01T03:10:17;1.77;76.05
75387;DHT22;63966;47.914;22.266;2023-03-01T03:13:23;1.74;76.01
75387;DHT22;63966;47.914;22.266;2023-03-01T03:16:31;1.71;75.57
75387;DHT22;63966;47.914;22.266;2023-03-01T03:19:36;1.70;76.07
75387;DHT22;63966;47.914;22.266;2023-03-01T03:22:40;1.68;76.11
75387;DHT22;63966;47.914;22.266;2023-03-01T03:25:43;1.73;76.18
75387;DHT22;63966;47.914;22.266;2023-03-01T03:28:47;1.66;75.93
75387;DHT22;63966;47.914;22.266;2023-03-01T03:31:50;1.68;76.48
75387;DHT22;63966;47.914;22.266;2023-03-01T03:34:54;1.71;75.61
75387;DHT22;63966;47.914;22.266;2023-03-01T03:38:00;1.70;75.65
75387;DHT22;63966;47.914;22.266;2023-03-01T03:41:08;1.64;75.96
75387;DHT22;63966;47.914;22.266;2023-03-01T03:44:11;1.56;76.43
75387;DHT22;63966;47.914;22.266;2023-03-01T03:47:15;1.64;76.33
75387;DHT22;63966;47.914;22.266;2023-03-01T03:50:21;1.71;76.02
75387;DHT22;63966;47.914;22.266;2023-03-01T03:53:27;1.73;76.57
75387;DHT22;63966;47.914;22.266;2023-03-01T03:56:30;1.78;76.20
75387;DHT22;63966;47.914;22.266;2023-03-01T03:59:34;1.76;75.84
75387;DHT22;63966;47.914;22.266;2023-03-01T04:02:39;1.66;75.98
75387;DHT22;63966;47.914;22.266;2023-03-01T04:05:43;1.66;76.56
75387;DHT22;63966;47.914;22.266;2023-03-01T04:08:46;1.66;76.19
75387;DHT22;63966;47.914;22.266;2023-03-01T04:11:54;1.64;76.29
75387;DHT22;63966;47.914;22.266;2023-03-01T04:14:57;1.66;76.24
75387;DHT22;63966;47.914;22.266;2023-03-01T04:18:01;1.64;76.57
75387;DHT22;63966;47.914;22.266;2023-03-01T04:21:05;1.68;76.51
75387;DHT22;63966;47.914;22.266;2023-03-01T04:24:08;1.77;76.17
75387;DHT22;63966;47.914;22.266;2023-03-01T04:27:12;1.73;76.71
75387;DHT22;63966;47.914;22.266;2023-03-01T04:30:16;1.70;76.56
75387;DHT22;63966;47.914;22.266;2023-03-01T04:33:20;1.73;76.08
75387;DHT22;63966;47.914;22.266;2023-03-01T04:36:26;1.84;75.88
75387;DHT22;63966;47.914;22.266;2023-03-01T04:39:31;1.80;76.02
75387;DHT22;63966;47.914;22.266;2023-03-01T04:42:36;1.77;76.12
75387;DHT22;63966;47.914;22.266;2023-03-01T04:45:39;1.78;76.13
75387;DHT22;63966;47.914;22.266;2023-03-01T04:48:44;1.81;76.26
75387;DHT22;63966;47.914;22.266;2023-03-01T04:51:48;1.73;76.27
75387;DHT22;63966;47.914;22.266;2023-03-01T04:54:51;1.68;76.68
75387;DHT22;63966;47.914;22.266;2023-03-01T04:57:55;1.64;76.49
75387;DHT22;63966;47.914;22.266;2023-03-01T05:00:59;1.76;76.65
75387;DHT22;63966;47.914;22.266;2023-03-01T05:04:03;1.77;76.00
75387;DHT22;63966;47.914;22.266;2023-03-01T05:07:08;1.76;75.90
75387;DHT22;63966;47.914;22.266;2023-03-01T05:10:12;1.71;76.42
75387;DHT22;63966;47.914;22.266;2023-03-01T05:13:17;1.67;76.61
75387;DHT22;63966;47.914;22.266;2023-03-01T05:16:24;1.70;76.65
75387;DHT22;63966;47.914;22.266;2023-03-01T05:19:28;1.71;77.09
75387;DHT22;63966;47.914;22.266;2023-03-01T05:22:31;1.74;76.34
75387;DHT22;63966;47.914;22.266;2023-03-01T05:25:38;1.77;76.02
75387;DHT22;63966;47.914;22.266;2023-03-01T05:28:44;1.78;76.33
75387;DHT22;63966;47.914;22.266;2023-03-01T05:31:47;1.77;75.92
75387;DHT22;63966;47.914;22.266;2023-03-01T05:34:51;1.78;75.95
75387;DHT22;63966;47.914;22.266;2023-03-01T05:37:55;1.77;75.99
75387;DHT22;63966;47.914;22.266;2023-03-01T05:40:59;1.74;76.16
75387;DHT22;63966;47.914;22.266;2023-03-01T05:44:03;1.73;75.99
75387;DHT22;63966;47.914;22.266;2023-03-01T05:47:09;1.70;76.02
75387;DHT22;63966;47.914;22.266;2023-03-01T05:50:19;1.78;76.24
75387;DHT22;63966;47.914;22.266;2023-03-01T05:53:23;1.74;76.56
75387;DHT22;63966;47.914;22.266;2023-03-01T05:56:26;1.81;76.43
75387;DHT22;63966;47.914;22.266;2023-03-01T05:59:30;1.80;76.18
75387;DHT22;63966;47.914;22.266;2023-03-01T06:02:34;1.93;76.05
75387;DHT22;63966;47.914;22.266;2023-03-01T06:05:38;1.90;75.52
75387;DHT22;63966;47.914;22.266;2023-03-01T06:08:42;1.94;75.31
75387;DHT22;63966;47.914;22.266;2023-03-01T06:11:46;1.88;75.49
75387;DHT22;63966;47.914;22.266;2023-03-01T06:14:49;1.95;75.47
75387;DHT22;63966;47.914;22.266;2023-03-01T06:17:54;2.18;75.32
75387;DHT22;63966;47.914;22.266;2023-03-01T06:21:07;2.15;74.82
75387;DHT22;63966;47.914;22.266;2023-03-01T06:24:11;2.13;74.72
75387;DHT22;63966;47.914;22.266;2023-03-01T06:27:15;2.15;74.25
75387;DHT22;63966;47.914;22.266;2023-03-01T06:30:20;2.26;74.18
75387;DHT22;63966;47.914;22.266;2023-03-01T06:33:24;2.32;74.11
75387;DHT22;63966;47.914;22.266;2023-03-01T06:36:28;2.35;74.24
75387;DHT22;63966;47.914;22.266;2023-03-01T06:39:32;2.45;73.71
75387;DHT22;63966;47.914;22.266;2023-03-01T06:42:40;2.72;73.30
75387;DHT22;63966;47.914;22.266;2023-03-01T06:45:44;2.86;73.03
75387;DHT22;63966;47.914;22.266;2023-03-01T06:48:48;2.91;72.38
75387;DHT22;63966;47.914;22.266;2023-03-01T06:51:55;3.05;72.07
75387;DHT22;63966;47.914;22.266;2023-03-01T06:54:59;3.11;71.39
75387;DHT22;63966;47.914;22.266;2023-03-01T06:58:03;3.21;70.62
75387;DHT22;63966;47.914;22.266;2023-03-01T07:01:09;3.39;71.61
75387;DHT22;63966;47.914;22.266;2023-03-01T07:04:13;3.66;69.91
75387;DHT22;63966;47.914;22.266;2023-03-01T07:07:17;3.96;69.67
75387;DHT22;63966;47.914;22.266;2023-03-01T07:10:23;4.86;66.30
75387;DHT22;63966;47.914;22.266;2023-03-01T07:13:28;4.89;65.34
75387;DHT22;63966;47.914;22.266;2023-03-01T07:16:31;5.73;63.82
75387;DHT22;63966;47.914;22.266;2023-03-01T07:19:36;6.31;60.17
75387;DHT22;63966;47.914;22.266;2023-03-01T07:22:42;5.71;61.49
75387;DHT22;63966;47.914;22.266;2023-03-01T07:25:52;5.31;62.59
75387;DHT22;63966;47.914;22.266;2023-03-01T07:28:58;5.47;62.38
75387;DHT22;63966;47.914;22.266;2023-03-01T07:32:03;6.85;58.26
75387;DHT22;63966;47.914;22.266;2023-03-01T07:35:07;7.43;56.30
75387;DHT22;63966;47.914;22.266;2023-03-01T07:38:11;9.05;51.33
75387;DHT22;63966;47.914;22.266;2023-03-01T07:41:16;9.86;49.73
75387;DHT22;63966;47.914;22.266;2023-03-01T07:44:20;10.19;47.14
75387;DHT22;63966;47.914;22.266;2023-03-01T07:47:24;9.83;47.79
75387;DHT22;63966;47.914;22.266;2023-03-01T07:50:28;9.09;50.28
75387;DHT22;63966;47.914;22.266;2023-03-01T07:53:33;9.90;48.73
75387;DHT22;63966;47.914;22.266;2023-03-01T07:56:40;11.03;45.15
75387;DHT22;63966;47.914;22.266;2023-03-01T07:59:44;11.70;43.70
75387;DHT22;63966;47.914;22.266;2023-03-01T08:02:47;11.75;43.39
75387;DHT22;63966;47.914;22.266;2023-03-01T08:05:52;11.42;43.37
75387;DHT22;63966;47.914;22.266;2023-03-01T08:08:55;11.04;44.56
75387;DHT22;63966;47.914;22.266;2023-03-01T08:11:59;11.87;43.38
75387;DHT22;63966;47.914;22.266;2023-03-01T08:15:03;11.28;44.22
75387;DHT22;63966;47.914;22.266;2023-03-01T08:18:07;10.99;46.27
75387;DHT22;63966;47.914;22.266;2023-03-01T08:21:13;9.66;49.43
75387;DHT22;63966;47.914;22.266;2023-03-01T08:24:17;8.72;51.10
75387;DHT22;63966;47.914;22.266;2023-03-01T08:27:21;8.46;51.62
75387;DHT22;63966;47.914;22.266;2023-03-01T08:30:28;8.05;52.56
75387;DHT22;63966;47.914;22.266;2023-03-01T08:33:31;8.15;54.73
75387;DHT22;63966;47.914;22.266;2023-03-01T08:36:38;7.78;55.91
75387;DHT22;63966;47.914;22.266;2023-03-01T08:39:43;7.65;54.57
75387;DHT22;63966;47.914;22.266;2023-03-01T08:42:47;7.63;56.49
75387;DHT22;63966;47.914;22.266;2023-03-01T08:45:51;7.23;56.28
75387;DHT22;63966;47.914;22.266;2023-03-01T08:48:55;7.53;57.02
75387;DHT22;63966;47.914;22.266;2023-03-01T08:51:59;7.36;57.08
75387;DHT22;63966;47.914;22.266;2023-03-01T08:55:03;7.37;58.34
75387;DHT22;63966;47.914;22.266;2023-03-01T08:58:08;7.55;61.16
75387;DHT22;63966;47.914;22.266;2023-03-01T09:01:15;7.36;57.52
75387;DHT22;63966;47.914;22.266;2023-03-01T09:04:19;7.50;57.60
75387;DHT22;63966;47.914;22.266;2023-03-01T09:07:22;7.37;57.87
75387;DHT22;63966;47.914;22.266;2023-03-01T09:10:31;7.57;56.71
75387;DHT22;63966;47.914;22.266;2023-03-01T09:13:35;7.51;58.91
75387;DHT22;63966;47.914;22.266;2023-03-01T09:16:39;7.84;60.23
75387;DHT22;63966;47.914;22.266;2023-03-01T09:19:43;7.78;56.61
75387;DHT22;63966;47.914;22.266;2023-03-01T09:22:46;7.91;56.74
75387;DHT22;63966;47.914;22.266;2023-03-01T09:25:50;7.85;59.36
75387;DHT22;63966;47.914;22.266;2023-03-01T09:28:55;7.94;56.34
75387;DHT22;63966;47.914;22.266;2023-03-01T09:31:59;7.99;57.48
75387;DHT22;63966;47.914;22.266;2023-03-01T09:35:04;8.01;56.55
75387;DHT22;63966;47.914;22.266;2023-03-01T09:38:08;8.19;56.88
75387;DHT22;63966;47.914;22.266;2023-03-01T09:44:38;8.33;57.87
75387;DHT22;63966;47.914;22.266;2023-03-01T09:47:44;8.42;57.96
75387;DHT22;63966;47.914;22.266;2023-03-01T09:50:52;8.46;57.93
75387;DHT22;63966;47.914;22.266;2023-03-01T09:53:56;8.34;56.27
75387;DHT22;63966;47.914;22.266;2023-03-01T09:57:06;8.64;55.89
75387;DHT22;63966;47.914;22.266;2023-03-01T10:00:42;8.74;57.96
75387;DHT22;63966;47.914;22.266;2023-03-01T10:04:05;8.65;57.40
75387;DHT22;63966;47.914;22.266;2023-03-01T10:10:39;8.63;56.19
75387;DHT22;63966;47.914;22.266;2023-03-01T10:14:15;8.67;57.58
75387;DHT22;63966;47.914;22.266;2023-03-01T10:21:13;8.56;56.21
75387;DHT22;63966;47.914;22.266;2023-03-01T10:24:19;8.64;56.88
75387;DHT22;63966;47.914;22.266;2023-03-01T10:30:38;8.70;56.33
75387;DHT22;63966;47.914;22.266;2023-03-01T10:33:42;8.81;56.82
75387;DHT22;63966;47.914;22.266;2023-03-01T10:36:51;8.97;57.98
75387;DHT22;63966;47.914;22.266;2023-03-01T10:40:05;8.97;56.40
75387;DHT22;63966;47.914;22.266;2023-03-01T10:43:13;8.85;57.01
75387;DHT22;63966;47.914;22.266;2023-03-01T10:49:26;8.89;56.44
75387;DHT22;63966;47.914;22.266;2023-03-01T10:52:36;9.11;56.80
75387;DHT22;63966;47.914;22.266;2023-03-01T10:55:40;9.04;57.23
75387;DHT22;63966;47.914;22.266;2023-03-01T10:59:03;9.16;56.87
75387;DHT22;63966;47.914;22.266;2023-03-01T11:02:29;9.15;56.43
75387;DHT22;63966;47.914;22.266;2023-03-01T11:05:33;9.25;56.98
75387;DHT22;63966;47.914;22.266;2023-03-01T11:08:48;9.15;55.59
75387;DHT22;63966;47.914;22.266;2023-03-01T11:11:57;9.19;56.21
75387;DHT22;63966;47.914;22.266;2023-03-01T11:15:01;9.23;55.59
75387;DHT22;63966;47.914;22.266;2023-03-01T11:18:21;9.36;56.18
75387;DHT22;63966;47.914;22.266;2023-03-01T11:22:16;9.33;55.87
75387;DHT22;63966;47.914;22.266;2023-03-01T11:25:33;9.32;56.38
75387;DHT22;63966;47.914;22.266;2023-03-01T11:28:40;9.26;56.66
75387;DHT22;63966;47.914;22.266;2023-03-01T11:31:45;9.44;58.55
75387;DHT22;63966;47.914;22.266;2023-03-01T11:35:24;9.56;55.80
75387;DHT22;63966;47.914;22.266;2023-03-01T11:38:32;9.60;58.79
75387;DHT22;63966;47.914;22.266;2023-03-01T11:41:39;9.57;56.20
75387;DHT22;63966;47.914;22.266;2023-03-01T11:44:50;9.64;58.09
75387;DHT22;63966;47.914;22.266;2023-03-01T11:51:38;9.73;60.02
75387;DHT22;63966;47.914;22.266;2023-03-01T12:05:36;9.86;58.02
75387;DHT22;63966;47.914;22.266;2023-03-01T12:23:08;9.83;57.40
75387;DHT22;63966;47.914;22.266;2023-03-01T12:26:35;9.81;56.77
75387;DHT22;63966;47.914;22.266;2023-03-01T12:36:58;9.83;56.31
75387;DHT22;63966;47.914;22.266;2023-03-01T12:50:22;9.91;56.89
75387;DHT22;63966;47.914;22.266;2023-03-01T12:53:40;9.97;56.17
75387;DHT22;63966;47.914;22.266;2023-03-01T12:56:45;9.93;56.05
75387;DHT22;63966;47.914;22.266;2023-03-01T13:00:05;9.84;55.18
75387;DHT22;63966;47.914;22.266;2023-03-01T13:03:25;9.81;55.79
75387;DHT22;63966;47.914;22.266;2023-03-01T13:06:38;9.73;56.10
75387;DHT22;63966;47.914;22.266;2023-03-01T13:10:23;9.77;55.23
75387;DHT22;63966;47.914;22.266;2023-03-01T13:13:29;9.70;55.91
75387;DHT22;63966;47.914;22.266;2023-03-01T13:16:41;9.84;56.80
75387;DHT22;63966;47.914;22.266;2023-03-01T13:20:12;9.94;57.01
75387;DHT22;63966;47.914;22.266;2023-03-01T13:26:25;9.91;57.44
75387;DHT22;63966;47.914;22.266;2023-03-01T13:32:50;9.94;55.89
75387;DHT22;63966;47.914;22.266;2023-03-01T13:35:55;9.76;56.22
75387;DHT22;63966;47.914;22.266;2023-03-01T13:39:31;9.83;54.67
75387;DHT22;63966;47.914;22.266;2023-03-01T13:42:39;9.87;55.39
75387;DHT22;63966;47.914;22.266;2023-03-01T13:45:44;9.83;54.33
75387;DHT22;63966;47.914;22.266;2023-03-01T13:48:51;9.84;53.03
75387;DHT22;63966;47.914;22.266;2023-03-01T13:51:57;9.71;54.49
75387;DHT22;63966;47.914;22.266;2023-03-01T13:55:03;9.81;53.87
75387;DHT22;63966;47.914;22.266;2023-03-01T14:01:26;9.70;53.21
75387;DHT22;63966;47.914;22.266;2023-03-01T14:04:32;9.74;54.95
75387;DHT22;63966;47.914;22.266;2023-03-01T14:07:39;9.78;56.13
75387;DHT22;63966;47.914;22.266;2023-03-01T14:20:42;9.60;54.57
75387;DHT22;63966;47.914;22.266;2023-03-01T14:23:49;9.63;53.87
75387;DHT22;63966;47.914;22.266;2023-03-01T14:26:52;9.66;53.85
75387;DHT22;63966;47.914;22.266;2023-03-01T14:30:00;9.61;54.60
75387;DHT22;63966;47.914;22.266;2023-03-01T14:33:06;9.53;54.65
75387;DHT22;63966;47.914;22.266;2023-03-01T14:36:12;9.57;53.83
75387;DHT22;63966;47.914;22.266;2023-03-01T14:39:24;9.63;54.82
75387;DHT22;63966;47.914;22.266;2023-03-01T14:42:34;9.57;53.72
75387;DHT22;63966;47.914;22.266;2023-03-01T14:45:38;9.84;53.51
75387;DHT22;63966;47.914;22.266;2023-03-01T14:48:41;9.71;53.29
75387;DHT22;63966;47.914;22.266;2023-03-01T14:52:04;9.59;53.50
75387;DHT22;63966;47.914;22.266;2023-03-01T14:55:18;9.57;53.63
75387;DHT22;63966;47.914;22.266;2023-03-01T14:58:25;9.54;54.67
75387;DHT22;63966;47.914;22.266;2023-03-01T15:01:29;9.49;53.68
75387;DHT22;63966;47.914;22.266;2023-03-01T15:04:33;9.50;53.78
75387;DHT22;63966;47.914;22.266;2023-03-01T15:07:40;9.63;54.36
75387;DHT22;63966;47.914;22.266;2023-03-01T15:11:01;9.43;53.17
75387;DHT22;63966;47.914;22.266;2023-03-01T15:14:29;9.39;53.41
75387;DHT22;63966;47.914;22.266;2023-03-01T15:17:42;9.26;53.96
75387;DHT22;63966;47.914;22.266;2023-03-01T15:20:49;9.26;54.38
75387;DHT22;63966;47.914;22.266;2023-03-01T15:27:24;9.09;55.30
75387;DHT22;63966;47.914;22.266;2023-03-01T15:30:34;9.11;55.34
75387;DHT22;63966;47.914;22.266;2023-03-01T15:33:41;9.07;55.14
75387;DHT22;63966;47.914;22.266;2023-03-01T15:36:52;9.11;56.05
75387;DHT22;63966;47.914;22.266;2023-03-01T15:39:57;9.07;57.08
75387;DHT22;63966;47.914;22.266;2023-03-01T15:43:04;8.85;57.06
75387;DHT22;63966;47.914;22.266;2023-03-01T15:46:32;8.78;57.17
75387;DHT22;63966;47.914;22.266;2023-03-01T15:49:41;8.75;56.91
75387;DHT22;63966;47.914;22.266;2023-03-01T15:52:58;8.65;57.75
75387;DHT22;63966;47.914;22.266;2023-03-01T15:56:03;8.60;57.94
75387;DHT22;63966;47.914;22.266;2023-03-01T15:59:10;8.63;57.90
75387;DHT22;63966;47.914;22.266;2023-03-01T16:02:18;8.51;58.40
75387;DHT22;63966;47.914;22.266;2023-03-01T16:05:33;8.46;58.87
75387;DHT22;63966;47.914;22.266;2023-03-01T16:08:40;8.29;59.50
75387;DHT22;63966;47.914;22.266;2023-03-01T16:11:44;8.13;60.20
75387;DHT22;63966;47.914;22.266;2023-03-01T16:14:48;7.98;60.95
75387;DHT22;63966;47.914;22.266;2023-03-01T16:17:52;7.95;61.75
75387;DHT22;63966;47.914;22.266;2023-03-01T16:21:00;7.91;61.80
75387;DHT22;63966;47.914;22.266;2023-03-01T16:24:04;7.86;62.10
75387;DHT22;63966;47.914;22.266;2023-03-01T16:27:08;7.73;62.49
75387;DHT22;63966;47.914;22.266;2023-03-01T16:30:13;7.57;62.97
75387;DHT22;63966;47.914;22.266;2023-03-01T16:33:19;7.38;63.69
75387;DHT22;63966;47.914;22.266;2023-03-01T16:36:36;7.37;63.92
75387;DHT22;63966;47.914;22.266;2023-03-01T16:39:40;7.30;64.09
75387;DHT22;63966;47.914;22.266;2023-03-01T16:42:43;7.22;64.25
75387;DHT22;63966;47.914;22.266;2023-03-01T16:45:47;7.12;64.68
75387;DHT22;63966;47.914;22.266;2023-03-01T16:48:51;7.09;64.62
75387;DHT22;63966;47.914;22.266;2023-03-01T16:51:55;7.03;65.16
75387;DHT22;63966;47.914;22.266;2023-03-01T16:54:59;6.93;65.44
75387;DHT22;63966;47.914;22.266;2023-03-01T16:58:02;6.88;65.60
75387;DHT22;63966;47.914;22.266;2023-03-01T17:01:16;6.81;65.48
75387;DHT22;63966;47.914;22.266;2023-03-01T17:04:20;6.77;65.24
75387;DHT22;63966;47.914;22.266;2023-03-01T17:07:24;6.69;65.12
75387;DHT22;63966;47.914;22.266;2023-03-01T17:10:27;6.71;64.92
75387;DHT22;63966;47.914;22.266;2023-03-01T17:13:31;6.57;65.09
75387;DHT22;63966;47.914;22.266;2023-03-01T17:16:35;6.48;65.06
75387;DHT22;63966;47.914;22.266;2023-03-01T17:19:39;6.41;65.21
75387;DHT22;63966;47.914;22.266;2023-03-01T17:22:44;6.41;64.92
75387;DHT22;63966;47.914;22.266;2023-03-01T17:25:48;6.30;65.10
75387;DHT22;63966;47.914;22.266;2023-03-01T17:28:52;6.21;65.35
75387;DHT22;63966;47.914;22.266;2023-03-01T17:31:56;6.11;65.44
75387;DHT22;63966;47.914;22.266;2023-03-01T17:34:59;6.00;65.76
75387;DHT22;63966;47.914;22.266;2023-03-01T17:38:06;5.95;65.68
75387;DHT22;63966;47.914;22.266;2023-03-01T17:41:10;5.88;65.01
75387;DHT22;63966;47.914;22.266;2023-03-01T17:44:14;5.86;64.82
75387;DHT22;63966;47.914;22.266;2023-03-01T17:47:17;5.73;64.61
75387;DHT22;63966;47.914;22.266;2023-03-01T17:50:21;5.66;64.11
75387;DHT22;63966;47.914;22.266;2023-03-01T17:53:25;5.62;63.74
75387;DHT22;63966;47.914;22.266;2023-03-01T17:56:29;5.56;63.69
75387;DHT22;63966;47.914;22.266;2023-03-01T17:59:37;5.47;64.14
75387;DHT22;63966;47.914;22.266;2023-03-01T18:02:41;5.40;64.70
75387;DHT22;63966;47.914;22.266;2023-03-01T18:05:45;5.17;65.04
75387;DHT22;63966;47.914;22.266;2023-03-01T18:08:49;5.12;65.06
75387;DHT22;63966;47.914;22.266;2023-03-01T18:11:53;5.10;64.96
75387;DHT22;63966;47.914;22.266;2023-03-01T18:14:57;5.01;65.51
75387;DHT22;63966;47.914;22.266;2023-03-01T18:18:01;4.89;66.07
75387;DHT22;63966;47.914;22.266;2023-03-01T18:21:06;4.86;66.32
75387;DHT22;63966;47.914;22.266;2023-03-01T18:24:10;4.85;65.94
75387;DHT22;63966;47.914;22.266;2023-03-01T18:27:13;4.79;65.08
75387;DHT22;63966;47.914;22.266;2023-03-01T18:30:17;4.83;63.68
75387;DHT22;63966;47.914;22.266;2023-03-01T18:33:21;4.85;62.33
75387;DHT22;63966;47.914;22.266;2023-03-01T18:36:30;4.73;61.97
75387;DHT22;63966;47.914;22.266;2023-03-01T18:39:34;4.65;62.08
75387;DHT22;63966;47.914;22.266;2023-03-01T18:42:38;4.61;61.22
75387;DHT22;63966;47.914;22.266;2023-03-01T18:45:42;4.59;60.53
75387;DHT22;63966;47.914;22.266;2023-03-01T18:48:48;4.54;59.40
75387;DHT22;63966;47.914;22.266;2023-03-01T18:51:52;4.52;59.14
75387;DHT22;63966;47.914;22.266;2023-03-01T18:54:57;4.35;59.09
75387;DHT22;63966;47.914;22.266;2023-03-01T18:58:01;4.31;58.43
75387;DHT22;63966;47.914;22.266;2023-03-01T19:01:10;4.21;58.15
75387;DHT22;63966;47.914;22.266;2023-03-01T19:04:14;4.16;57.54
75387;DHT22;63966;47.914;22.266;2023-03-01T19:07:18;4.10;57.39
75387;DHT22;63966;47.914;22.266;2023-03-01T19:10:23;4.04;57.19
75387;DHT22;63966;47.914;22.266;2023-03-01T19:13:27;3.93;57.31
75387;DHT22;63966;47.914;22.266;2023-03-01T19:16:33;3.86;57.53
75387;DHT22;63966;47.914;22.266;2023-03-01T19:19:38;3.87;56.78
75387;DHT22;63966;47.914;22.266;2023-03-01T19:22:42;3.77;57.02
75387;DHT22;63966;47.914;22.266;2023-03-01T19:25:46;3.80;57.08
75387;DHT22;63966;47.914;22.266;2023-03-01T19:28:51;3.68;57.64
75387;DHT22;63966;47.914;22.266;2023-03-01T19:31:55;3.58;58.08
75387;DHT22;63966;47.914;22.266;2023-03-01T19:34:58;3.52;58.48
75387;DHT22;63966;47.914;22.266;2023-03-01T19:38:02;3.48;58.56
75387;DHT22;63966;47.914;22.266;2023-03-01T19:41:08;3.36;58.95
75387;DHT22;63966;47.914;22.266;2023-03-01T19:44:12;3.25;59.46
75387;DHT22;63966;47.914;22.266;2023-03-01T19:47:16;3.25;59.20
75387;DHT22;63966;47.914;22.266;2023-03-01T19:50:22;3.20;59.61
75387;DHT22;63966;47.914;22.266;2023-03-01T19:53:26;3.08;60.33
75387;DHT22;63966;47.914;22.266;2023-03-01T19:56:29;3.01;60.72
75387;DHT22;63966;47.914;22.266;2023-03-01T19:59:34;2.82;61.40
75387;DHT22;63966;47.914;22.266;2023-03-01T20:02:37;2.73;61.59
75387;DHT22;63966;47.914;22.266;2023-03-01T20:05:42;2.77;61.92
75387;DHT22;63966;47.914;22.266;2023-03-01T20:08:49;2.76;61.91
75387;DHT22;63966;47.914;22.266;2023-03-01T20:11:52;2.67;62.57
75387;DHT22;63966;47.914;22.266;2023-03-01T20:14:56;2.69;62.37
75387;DHT22;63966;47.914;22.266;2023-03-01T20:18:01;2.66;62.60
75387;DHT22;63966;47.914;22.266;2023-03-01T20:21:05;2.57;63.15
75387;DHT22;63966;47.914;22.266;2023-03-01T20:24:23;2.50;63.43
75387;DHT22;63966;47.914;22.266;2023-03-01T20:27:27;2.48;63.45
75387;DHT22;63966;47.914;22.266;2023-03-01T20:30:36;2.46;63.68
75387;DHT22;63966;47.914;22.266;2023-03-01T20:33:40;2.38;64.08
75387;DHT22;63966;47.914;22.266;2023-03-01T20:36:44;2.29;64.32
75387;DHT22;63966;47.914;22.266;2023-03-01T20:39:48;2.28;64.54
75387;DHT22;63966;47.914;22.266;2023-03-01T20:42:53;2.25;64.78
75387;DHT22;63966;47.914;22.266;2023-03-01T20:45:57;2.22;64.80
75387;DHT22;63966;47.914;22.266;2023-03-01T20:49:00;2.11;65.18
75387;DHT22;63966;47.914;22.266;2023-03-01T20:52:05;2.15;65.29
75387;DHT22;63966;47.914;22.266;2023-03-01T20:55:09;2.15;65.15
75387;DHT22;63966;47.914;22.266;2023-03-01T20:58:13;2.10;65.57
75387;DHT22;63966;47.914;22.266;2023-03-01T21:01:18;2.11;65.52
75387;DHT22;63966;47.914;22.266;2023-03-01T21:04:23;2.17;65.21
75387;DHT22;63966;47.914;22.266;2023-03-01T21:07:27;2.17;65.09
75387;DHT22;63966;47.914;22.266;2023-03-01T21:10:32;2.11;65.40
75387;DHT22;63966;47.914;22.266;2023-03-01T21:13:36;2.01;65.60
75387;DHT22;63966;47.914;22.266;2023-03-01T21:16:39;1.94;66.20
75387;DHT22;63966;47.914;22.266;2023-03-01T21:19:44;1.95;65.99